createdAt,value
2019-01-25T00:01:07.284Z,83.33
2019-01-25T00:05:06.997Z,87.77
2019-01-25T00:09:07.440Z,86.50
2019-01-25T00:13:05.881Z,93.33
2019-01-25T00:17:04.888Z,85.97
2019-01-25T00:21:04.502Z,84.67
2019-01-25T00:25:03.215Z,87.07
2019-01-25T00:29:02.148Z,87.77
2019-01-25T00:33:00.844Z,90.10
2019-01-25T00:36:59.414Z,93.00
2019-01-25T00:40:58.239Z,85.77
2019-01-25T00:44:57.239Z,91.63
2019-01-25T00:48:56.589Z,93.67
2019-01-25T00:52:55.554Z,96.50
2019-01-25T00:56:53.993Z,88.77
2019-01-25T01:00:54.174Z,88.03
2019-01-25T01:04:55.021Z,83.53
2019-01-25T01:08:53.485Z,93.13
2019-01-25T01:12:52.413Z,89.20
2019-01-25T01:16:51.104Z,84.03
2019-01-25T01:20:50.313Z,84.20
2019-01-25T01:24:48.905Z,90.43
2019-01-25T01:28:50.263Z,84.77
2019-01-25T01:32:48.964Z,91.60
2019-01-25T01:36:47.659Z,88.13
2019-01-25T01:40:47.641Z,90.90
2019-01-25T01:44:46.280Z,82.23
2019-01-25T01:48:45.857Z,84.63
2019-01-25T01:52:44.781Z,87.27
2019-01-25T01:56:43.596Z,83.50
2019-01-25T02:00:42.037Z,87.73
2019-01-25T02:04:40.682Z,81.00
2019-01-25T02:08:40.785Z,78.33
2019-01-25T02:12:39.321Z,88.13
2019-01-25T02:16:37.999Z,91.27
2019-01-25T02:20:36.693Z,84.67
2019-01-25T02:24:35.049Z,85.80
2019-01-25T02:28:35.498Z,82.03
2019-01-25T02:32:38.000Z,82.93
2019-01-25T02:36:34.254Z,89.30
2019-01-25T02:40:38.615Z,88.70
2019-01-25T02:44:32.865Z,83.57
2019-01-25T02:48:31.456Z,86.23
2019-01-25T02:52:29.889Z,83.90
2019-01-25T02:56:28.643Z,89.47
2019-01-25T03:00:29.183Z,89.50
2019-01-25T03:04:27.625Z,111.10
2019-01-25T03:08:26.268Z,100.97
2019-01-25T03:12:24.966Z,112.53
2019-01-25T03:16:23.658Z,111.30
2019-01-25T03:20:24.201Z,106.07
2019-01-25T03:24:22.893Z,108.30
2019-01-25T03:28:21.340Z,125.90
2019-01-25T03:32:19.966Z,120.33
2019-01-25T03:36:18.555Z,118.60
2019-01-25T03:40:20.019Z,105.80
2019-01-25T03:44:18.835Z,112.33
2019-01-25T03:48:17.327Z,110.33
2019-01-25T03:52:16.231Z,125.57
2019-01-25T03:56:14.622Z,116.80
2019-01-25T04:00:16.384Z,127.23
2019-01-25T04:04:14.967Z,127.60
2019-01-25T04:08:13.391Z,115.60
2019-01-25T04:12:12.474Z,118.13
2019-01-25T04:16:11.168Z,115.37
2019-01-25T04:20:14.076Z,126.97
2019-01-25T04:24:14.682Z,118.47
2019-01-25T04:28:13.397Z,129.80
2019-01-25T04:32:12.094Z,131.73
2019-01-25T04:36:10.794Z,133.40
2019-01-25T04:40:12.851Z,128.03
2019-01-25T04:44:12.874Z,120.77
2019-01-25T04:48:32.995Z,120.17
2019-01-25T04:52:31.690Z,146.17
2019-01-25T04:56:32.547Z,140.63
2019-01-25T05:00:31.011Z,137.27
2019-01-25T05:04:31.072Z,132.13
2019-01-25T05:08:29.602Z,148.10
2019-01-25T05:12:28.192Z,127.33
2019-01-25T05:16:26.704Z,132.27
2019-01-25T05:20:25.178Z,144.53
2019-01-25T05:24:25.605Z,142.37
2019-01-25T05:28:25.375Z,135.03
2019-01-25T05:32:23.726Z,153.90
2019-01-25T05:36:22.153Z,150.13
2019-01-25T05:40:23.478Z,162.47
2019-01-25T05:44:21.901Z,135.30
2019-01-25T05:48:20.669Z,141.33
2019-01-25T05:52:20.341Z,145.00
2019-01-25T05:56:18.844Z,144.43
2019-01-25T06:00:28.086Z,146.53
2019-01-25T06:04:34.371Z,156.30
2019-01-25T06:08:33.944Z,137.23
2019-01-25T06:12:32.307Z,135.53
2019-01-25T06:16:31.201Z,127.73
2019-01-25T06:20:29.620Z,147.00
2019-01-25T06:24:28.061Z,145.20
2019-01-25T06:28:26.481Z,148.63
2019-01-25T06:32:24.990Z,135.13
2019-01-25T06:36:23.823Z,135.00
2019-01-25T06:40:22.322Z,145.17
2019-01-25T06:44:20.830Z,164.33
2019-01-25T06:48:19.303Z,145.87
2019-01-25T06:52:17.730Z,152.17
2019-01-25T06:56:16.118Z,129.53
2019-01-25T07:00:18.104Z,135.63
2019-01-25T07:04:16.884Z,120.90
2019-01-25T07:08:17.016Z,130.47
2019-01-25T07:12:15.409Z,121.03
2019-01-25T07:16:14.201Z,127.13
2019-01-25T07:20:14.809Z,112.27
2019-01-25T07:24:13.277Z,106.10
2019-01-25T07:28:11.692Z,127.80
2019-01-25T07:32:10.117Z,119.27
2019-01-25T07:36:09.145Z,121.03
2019-01-25T07:40:09.569Z,110.70
2019-01-25T07:44:07.988Z,119.13
2019-01-25T07:48:06.787Z,122.77
2019-01-25T07:52:06.852Z,120.80
2019-01-25T07:56:06.137Z,134.27
2019-01-25T08:00:08.082Z,136.73
2019-01-25T08:04:06.513Z,133.03
2019-01-25T08:08:04.949Z,148.67
2019-01-25T08:12:07.688Z,139.87
2019-01-25T08:16:03.496Z,133.23
2019-01-25T08:20:02.352Z,158.47
2019-01-25T08:24:00.936Z,154.90
2019-01-25T08:27:59.450Z,157.43
2019-01-25T08:31:57.858Z,131.30
2019-01-25T08:35:56.346Z,149.60
2019-01-25T08:39:54.740Z,136.13
2019-01-25T08:43:59.077Z,144.07
2019-01-25T08:47:59.414Z,138.40
2019-01-25T08:51:57.953Z,157.53
2019-01-25T08:55:56.332Z,146.20
2019-01-25T08:59:54.767Z,133.10
2019-01-25T09:03:53.211Z,152.13
2019-01-25T09:07:51.595Z,107.83
2019-01-25T09:11:50.100Z,137.87
2019-01-25T09:15:48.884Z,139.00
2019-01-25T09:19:47.356Z,140.63
2019-01-25T09:23:46.020Z,140.70
2019-01-25T09:27:45.023Z,142.10
2019-01-25T09:31:43.475Z,169.17
2019-01-25T09:35:41.896Z,158.87
2019-01-25T09:39:40.655Z,151.97
2019-01-25T09:43:42.061Z,128.83
2019-01-25T09:47:43.945Z,157.27
2019-01-25T09:51:42.359Z,149.03
2019-01-25T09:55:40.802Z,135.40
2019-01-25T09:59:39.184Z,148.90
2019-01-25T10:03:37.795Z,145.70
2019-01-25T10:07:36.276Z,147.53
2019-01-25T10:11:40.094Z,159.07
2019-01-25T10:15:38.901Z,142.77
2019-01-25T10:19:37.259Z,150.00
2019-01-25T10:23:39.159Z,162.03
2019-01-25T10:27:36.029Z,153.27
2019-01-25T10:31:34.429Z,171.13
2019-01-25T10:35:33.126Z,166.50
2019-01-25T10:39:31.527Z,145.93
2019-01-25T10:43:29.934Z,177.47
2019-01-25T10:47:28.386Z,166.73
2019-01-25T10:51:26.752Z,160.90
2019-01-25T10:55:25.141Z,129.97
2019-01-25T10:59:24.215Z,174.93
2019-01-25T11:03:23.152Z,160.10
2019-01-25T11:07:24.222Z,197.70
2019-01-25T11:11:23.238Z,187.17
2019-01-25T11:15:23.400Z,144.77
2019-01-25T11:19:22.963Z,197.57
2019-01-25T11:23:21.683Z,197.13
2019-01-25T11:27:21.007Z,190.33
2019-01-25T11:31:19.446Z,138.57
2019-01-25T11:35:17.897Z,168.70
2019-01-25T11:39:16.432Z,158.13
2019-01-25T11:43:14.854Z,149.17
2019-01-25T11:47:13.235Z,156.33
2019-01-25T11:51:24.472Z,151.53
2019-01-25T11:55:25.638Z,120.27
2019-01-25T11:59:31.120Z,128.03
2019-01-25T12:03:29.558Z,107.40
2019-01-25T12:07:27.957Z,141.77
2019-01-25T12:11:27.052Z,127.57
2019-01-25T12:15:25.583Z,122.17
2019-01-25T12:19:42.531Z,115.10
2019-01-25T12:23:41.147Z,108.77
2019-01-25T12:27:39.798Z,93.67
2019-01-25T12:31:38.172Z,85.80
2019-01-25T12:35:56.691Z,93.47
2019-01-25T12:39:56.718Z,95.73
2019-01-25T12:43:55.116Z,103.57
2019-01-25T12:47:53.557Z,100.47
2019-01-25T12:51:52.010Z,106.40
2019-01-25T12:55:50.533Z,94.37
2019-01-25T12:59:49.306Z,93.10
2019-01-25T13:03:47.738Z,83.70
2019-01-25T13:07:46.109Z,69.00
2019-01-25T13:11:44.518Z,70.60
2019-01-25T13:15:42.911Z,81.10
2019-01-25T13:19:44.078Z,87.73
2019-01-25T13:23:43.497Z,71.53
2019-01-25T13:27:41.892Z,68.37
2019-01-25T13:31:41.823Z,70.90
2019-01-25T13:35:40.226Z,64.50
2019-01-25T13:39:38.611Z,59.30
2019-01-25T13:43:40.107Z,64.80
2019-01-25T13:47:38.552Z,58.90
2019-01-25T13:51:36.950Z,57.30
2019-01-25T13:55:35.375Z,61.43
2019-01-25T13:59:37.147Z,46.47
2019-01-25T14:03:35.514Z,62.33
2019-01-25T14:07:34.008Z,71.57
2019-01-25T14:11:32.626Z,63.73
2019-01-25T14:15:31.325Z,67.80
2019-01-25T14:19:30.021Z,61.20
2019-01-25T14:23:28.707Z,60.57
2019-01-25T14:27:28.690Z,60.63
2019-01-25T14:31:27.165Z,53.10
2019-01-25T14:39:41.626Z,55.23
2019-01-25T14:43:40.031Z,59.50
2019-01-25T14:47:40.120Z,62.63
2019-01-25T14:51:38.544Z,57.87
2019-01-25T14:55:36.970Z,60.53
2019-01-25T14:59:35.904Z,57.17
2019-01-25T15:03:34.286Z,59.80
2019-01-25T15:07:32.693Z,56.50
2019-01-25T15:11:31.497Z,55.50
2019-01-25T15:15:29.859Z,54.50
2019-01-25T15:19:34.242Z,51.50
2019-01-25T15:23:32.704Z,49.93
2019-01-25T15:27:31.241Z,52.33
2019-01-25T15:31:31.632Z,53.57
2019-01-25T15:35:30.308Z,46.57
2019-01-25T15:39:28.793Z,52.23
2019-01-25T15:43:30.859Z,48.10
2019-01-25T15:47:29.258Z,51.73
2019-01-25T15:51:27.961Z,54.60
2019-01-25T15:55:29.144Z,39.37
2019-01-25T15:59:27.901Z,53.27
2019-01-25T16:03:26.396Z,42.47
2019-01-25T16:07:24.809Z,44.03
2019-01-25T16:11:27.502Z,40.13
2019-01-25T16:15:28.325Z,41.47
2019-01-25T16:19:27.895Z,41.87
2019-01-25T16:23:26.426Z,44.00
2019-01-25T16:27:24.874Z,34.30
2019-01-25T16:31:27.799Z,38.37
2019-01-25T16:35:28.835Z,39.23
2019-01-25T16:39:32.017Z,38.53
2019-01-25T16:43:30.431Z,44.60
2019-01-25T16:47:28.876Z,38.07
2019-01-25T16:51:27.292Z,39.20
2019-01-25T16:55:25.806Z,40.57
2019-01-25T16:59:27.978Z,40.37
2019-01-25T17:03:28.596Z,44.73
2019-01-25T17:07:28.865Z,39.87
2019-01-25T17:11:27.290Z,39.60
2019-01-25T17:15:26.725Z,38.07
2019-01-25T17:19:25.306Z,29.53
2019-01-25T17:23:24.095Z,31.50
2019-01-25T17:27:22.510Z,38.10
2019-01-25T17:31:20.903Z,34.27
2019-01-25T17:35:19.465Z,37.47
2019-01-25T17:39:18.221Z,29.63
2019-01-25T17:43:16.620Z,28.37
2019-01-25T17:47:17.043Z,24.67
2019-01-25T17:51:15.553Z,23.70
2019-01-25T17:55:18.290Z,23.67
2019-01-25T17:59:24.640Z,18.93
2019-01-25T18:03:23.501Z,22.03
2019-01-25T18:07:21.881Z,28.92
2019-01-25T18:11:20.671Z,30.77
2019-01-25T18:15:19.901Z,28.07
2019-01-25T18:19:20.076Z,28.03
2019-01-25T18:23:18.584Z,28.43
2019-01-25T18:27:16.989Z,21.30
2019-01-25T18:31:21.594Z,22.23
2019-01-25T18:35:20.980Z,29.17
2019-01-25T18:39:19.776Z,24.43
2019-01-25T18:43:18.167Z,25.47
2019-01-25T18:47:16.586Z,24.30
2019-01-25T18:51:15.144Z,23.33
2019-01-25T18:55:22.752Z,22.37
2019-01-25T18:59:21.967Z,17.97
2019-01-25T19:03:20.330Z,18.77
2019-01-25T19:07:21.126Z,21.00
2019-01-25T19:11:19.544Z,21.33
2019-01-25T19:15:23.618Z,15.63
2019-01-25T19:19:22.037Z,20.30
2019-01-25T19:23:20.538Z,18.67
2019-01-25T19:27:19.169Z,22.10
2019-01-25T19:31:17.578Z,18.63
2019-01-25T19:35:15.994Z,18.50
2019-01-25T19:39:14.440Z,24.20
2019-01-25T19:43:13.228Z,19.97
2019-01-25T19:47:11.890Z,20.80
2019-01-25T19:51:10.357Z,13.67
2019-01-25T19:55:12.075Z,21.27
2019-01-25T19:59:10.471Z,17.93
2019-01-25T20:03:08.949Z,18.07
2019-01-25T20:07:07.772Z,18.73
2019-01-25T20:11:06.142Z,18.87
2019-01-25T20:15:07.725Z,21.83
2019-01-25T20:19:08.765Z,26.83
2019-01-25T20:23:08.580Z,17.93
2019-01-25T20:27:06.917Z,13.53
2019-01-25T20:31:05.306Z,19.47
2019-01-25T20:35:04.586Z,16.30
2019-01-25T20:39:04.636Z,17.23
2019-01-25T20:43:03.136Z,14.13
2019-01-25T20:47:01.529Z,15.67
2019-01-25T20:51:00.221Z,13.70
2019-01-25T20:54:58.554Z,11.90
2019-01-25T20:58:56.946Z,13.83
2019-01-25T21:02:56.980Z,17.03
2019-01-25T21:06:55.685Z,17.80
2019-01-25T21:10:54.382Z,12.20
2019-01-25T21:14:52.868Z,11.23
2019-01-25T21:18:51.257Z,10.90
2019-01-25T21:22:49.963Z,14.43
2019-01-25T21:26:48.444Z,14.77
2019-01-25T21:30:46.878Z,15.23
2019-01-25T21:34:45.249Z,11.93
2019-01-25T21:38:43.673Z,13.47
2019-01-25T21:42:44.333Z,9.33
2019-01-25T21:46:42.780Z,10.97
2019-01-25T21:50:43.533Z,10.27
2019-01-25T21:54:41.954Z,8.20
2019-01-25T21:58:40.340Z,8.93
2019-01-25T22:02:38.764Z,8.37
2019-01-25T22:06:39.924Z,8.27
2019-01-25T22:10:41.242Z,9.40
2019-01-25T22:14:39.669Z,6.37
2019-01-25T22:18:38.848Z,11.10
2019-01-25T22:22:41.432Z,7.77
2019-01-25T22:26:39.925Z,7.20
2019-01-25T22:30:38.336Z,6.67
2019-01-25T22:34:36.730Z,6.90
2019-01-25T22:38:35.151Z,10.00
2019-01-25T22:42:33.569Z,10.43
2019-01-25T22:46:31.988Z,11.87
2019-01-25T22:50:33.096Z,12.30
2019-01-25T22:54:31.579Z,11.10
2019-01-25T22:58:30.169Z,16.97
2019-01-25T23:02:28.819Z,14.50
2019-01-25T23:06:33.395Z,17.60
2019-01-25T23:10:32.199Z,14.93
2019-01-25T23:14:30.794Z,12.80
2019-01-25T23:18:29.133Z,15.63
2019-01-25T23:22:27.521Z,20.10
2019-01-25T23:26:25.923Z,21.80
2019-01-25T23:30:27.679Z,26.00
2019-01-25T23:34:26.066Z,31.13
2019-01-25T23:38:24.525Z,34.57
2019-01-25T23:42:26.489Z,33.70
2019-01-25T23:46:24.873Z,37.33
2019-01-25T23:50:26.235Z,34.10
2019-01-25T23:54:26.299Z,33.20
2019-01-25T23:58:24.697Z,41.90
